< < Back
Terminal Aerodrome Forecast


Current Version              Previous Versions:   1  2  3  4  5  6  7  8  9  

Terminal Aerodrome Forecast

465
FTUS44 KOHX 200500
TAFBNA
TAF
KBNA 200529Z 2006/2106 07006KT P6SM -SN SCT040 BKN070 OVC090
     FM200700 05006KT P6SM SCT040 BKN070 OVC090
     FM201400 36004KT P6SM SCT040 BKN070
     FM210000 36004KT P6SM SCT040=



Latest METAR

071
SAUS70 KWBC 200500 RRK
MTRBNA
METAR KBNA 200453Z 07006KT 9SM OVC090 03/M03 A3024 RMK AO2 SNB44E53
SLP244 P0000 T00281028


USA.gov is the U.S. government's official web portal to all federal, state and local government web resources and services.